sensor_id;sensor_type;location;lat;lon;timestamp;pressure;altitude;pressure_sealevel;temperature;humidity
56671;BME280;42545;50.054;8.306;2022-12-10T00:00:27;98980.19;;;-0.37;97.29
56671;BME280;42545;50.054;8.306;2022-12-10T00:02:54;98991.41;;;-0.37;97.52
56671;BME280;42545;50.054;8.306;2022-12-10T00:05:21;98990.47;;;-0.39;96.92
56671;BME280;42545;50.054;8.306;2022-12-10T00:07:48;98994.84;;;-0.38;97.46
56671;BME280;42545;50.054;8.306;2022-12-10T00:10:16;98993.94;;;-0.39;97.68
56671;BME280;42545;50.054;8.306;2022-12-10T00:12:43;98999.00;;;-0.42;97.19
56671;BME280;42545;50.054;8.306;2022-12-10T00:15:11;99000.69;;;-0.42;97.39
56671;BME280;42545;50.054;8.306;2022-12-10T00:17:38;99010.19;;;-0.43;97.36
56671;BME280;42545;50.054;8.306;2022-12-10T00:20:06;99006.66;;;-0.45;97.66
56671;BME280;42545;50.054;8.306;2022-12-10T00:22:33;99003.13;;;-0.47;97.40
56671;BME280;42545;50.054;8.306;2022-12-10T00:25:00;99005.69;;;-0.47;97.92
56671;BME280;42545;50.054;8.306;2022-12-10T00:27:27;99009.09;;;-0.48;97.66
56671;BME280;42545;50.054;8.306;2022-12-10T00:29:54;98999.50;;;-0.50;98.13
56671;BME280;42545;50.054;8.306;2022-12-10T00:32:22;98998.63;;;-0.51;97.85
56671;BME280;42545;50.054;8.306;2022-12-10T00:34:49;99001.16;;;-0.52;97.88
56671;BME280;42545;50.054;8.306;2022-12-10T00:37:16;99002.84;;;-0.53;97.83
56671;BME280;42545;50.054;8.306;2022-12-10T00:39:43;98998.41;;;-0.55;98.21
56671;BME280;42545;50.054;8.306;2022-12-10T00:42:10;98997.47;;;-0.57;98.13
56671;BME280;42545;50.054;8.306;2022-12-10T00:44:37;98997.47;;;-0.57;98.39
56671;BME280;42545;50.054;8.306;2022-12-10T00:47:04;98996.59;;;-0.58;98.64
56671;BME280;42545;50.054;8.306;2022-12-10T00:49:35;98993.94;;;-0.60;98.45
56671;BME280;42545;50.054;8.306;2022-12-10T00:52:02;98995.63;;;-0.60;98.80
56671;BME280;42545;50.054;8.306;2022-12-10T00:54:29;98994.66;;;-0.62;99.16
56671;BME280;42545;50.054;8.306;2022-12-10T00:56:56;98996.31;;;-0.64;98.65
56671;BME280;42545;50.054;8.306;2022-12-10T00:59:23;98998.97;;;-0.63;99.16
56671;BME280;42545;50.054;8.306;2022-12-10T01:01:50;98996.31;;;-0.64;98.97
56671;BME280;42545;50.054;8.306;2022-12-10T01:04:18;99002.38;;;-0.64;98.96
56671;BME280;42545;50.054;8.306;2022-12-10T01:06:47;98997.94;;;-0.66;98.88
56671;BME280;42545;50.054;8.306;2022-12-10T01:09:16;99000.47;;;-0.68;98.85
56671;BME280;42545;50.054;8.306;2022-12-10T01:11:45;98998.72;;;-0.69;99.15
56671;BME280;42545;50.054;8.306;2022-12-10T01:14:15;98999.44;;;-0.71;99.18
56671;BME280;42545;50.054;8.306;2022-12-10T01:16:43;99000.41;;;-0.69;99.12
56671;BME280;42545;50.054;8.306;2022-12-10T01:19:14;99002.09;;;-0.70;99.27
56671;BME280;42545;50.054;8.306;2022-12-10T01:21:41;99009.00;;;-0.70;99.07
56671;BME280;42545;50.054;8.306;2022-12-10T01:24:09;99019.28;;;-0.72;98.97
56671;BME280;42545;50.054;8.306;2022-12-10T01:26:36;99017.53;;;-0.73;99.20
56671;BME280;42545;50.054;8.306;2022-12-10T01:29:04;99020.13;;;-0.73;99.09
56671;BME280;42545;50.054;8.306;2022-12-10T01:31:32;99014.88;;;-0.74;98.86
56671;BME280;42545;50.054;8.306;2022-12-10T01:34:00;99025.16;;;-0.76;98.91
56671;BME280;42545;50.054;8.306;2022-12-10T01:36:30;99032.03;;;-0.76;99.53
56671;BME280;42545;50.054;8.306;2022-12-10T01:38:58;99023.38;;;-0.77;99.36
56671;BME280;42545;50.054;8.306;2022-12-10T01:41:29;99033.66;;;-0.79;99.06
56671;BME280;42545;50.054;8.306;2022-12-10T01:43:59;99036.19;;;-0.80;99.18
56671;BME280;42545;50.054;8.306;2022-12-10T01:46:27;99043.91;;;-0.82;99.10
56671;BME280;42545;50.054;8.306;2022-12-10T01:48:55;99046.50;;;-0.82;99.33
56671;BME280;42545;50.054;8.306;2022-12-10T01:51:23;99052.47;;;-0.83;99.54
56671;BME280;42545;50.054;8.306;2022-12-10T01:53:51;99055.97;;;-0.82;99.29
56671;BME280;42545;50.054;8.306;2022-12-10T01:56:19;99054.09;;;-0.85;99.30
56671;BME280;42545;50.054;8.306;2022-12-10T01:58:50;99052.41;;;-0.84;99.29
56671;BME280;42545;50.054;8.306;2022-12-10T02:01:26;99056.63;;;-0.86;99.44
56671;BME280;42545;50.054;8.306;2022-12-10T02:04:01;99059.97;;;-0.89;99.06
56671;BME280;42545;50.054;8.306;2022-12-10T02:06:46;99055.66;;;-0.88;99.47
56671;BME280;42545;50.054;8.306;2022-12-10T02:09:22;99058.13;;;-0.91;99.34
56671;BME280;42545;50.054;8.306;2022-12-10T02:12:01;99055.47;;;-0.93;99.31
56671;BME280;42545;50.054;8.306;2022-12-10T02:14:41;99044.09;;;-0.97;99.07
56671;BME280;42545;50.054;8.306;2022-12-10T02:17:13;99050.16;;;-0.96;99.21
56671;BME280;42545;50.054;8.306;2022-12-10T02:19:56;99042.22;;;-0.99;99.27
56671;BME280;42545;50.054;8.306;2022-12-10T02:22:26;99052.59;;;-0.99;99.35
56671;BME280;42545;50.054;8.306;2022-12-10T02:24:55;99052.50;;;-1.01;99.03
56671;BME280;42545;50.054;8.306;2022-12-10T02:27:28;99051.47;;;-1.04;99.08
56671;BME280;42545;50.054;8.306;2022-12-10T02:30:00;99048.84;;;-1.06;99.35
56671;BME280;42545;50.054;8.306;2022-12-10T02:32:33;99036.63;;;-1.08;99.45
56671;BME280;42545;50.054;8.306;2022-12-10T02:35:05;99039.06;;;-1.11;99.43
56671;BME280;42545;50.054;8.306;2022-12-10T02:37:36;99046.78;;;-1.13;99.56
56671;BME280;42545;50.054;8.306;2022-12-10T02:40:10;99040.50;;;-1.18;99.64
56671;BME280;42545;50.054;8.306;2022-12-10T02:42:41;99037.78;;;-1.21;99.68
56671;BME280;42545;50.054;8.306;2022-12-10T02:45:11;99045.38;;;-1.24;99.81
56671;BME280;42545;50.054;8.306;2022-12-10T02:47:49;99039.19;;;-1.28;99.79
56671;BME280;42545;50.054;8.306;2022-12-10T02:50:18;99045.97;;;-1.30;100.00
56671;BME280;42545;50.054;8.306;2022-12-10T02:52:47;99048.38;;;-1.34;99.98
56671;BME280;42545;50.054;8.306;2022-12-10T02:55:14;99052.50;;;-1.38;99.87
56671;BME280;42545;50.054;8.306;2022-12-10T02:57:46;99048.97;;;-1.40;100.00
56671;BME280;42545;50.054;8.306;2022-12-10T03:00:20;99049.69;;;-1.43;100.00
56671;BME280;42545;50.054;8.306;2022-12-10T03:02:51;99044.41;;;-1.46;100.00
56671;BME280;42545;50.054;8.306;2022-12-10T03:05:27;99050.28;;;-1.48;100.00
56671;BME280;42545;50.054;8.306;2022-12-10T03:07:59;99046.75;;;-1.50;100.00
56671;BME280;42545;50.054;8.306;2022-12-10T03:10:32;99050.09;;;-1.53;100.00
56671;BME280;42545;50.054;8.306;2022-12-10T03:13:06;99055.09;;;-1.56;100.00
56671;BME280;42545;50.054;8.306;2022-12-10T03:15:38;99043.81;;;-1.58;100.00
56671;BME280;42545;50.054;8.306;2022-12-10T03:18:07;99047.94;;;-1.62;100.00
56671;BME280;42545;50.054;8.306;2022-12-10T03:20:38;99043.53;;;-1.64;100.00
56671;BME280;42545;50.054;8.306;2022-12-10T03:23:09;99040.84;;;-1.66;100.00
56671;BME280;42545;50.054;8.306;2022-12-10T03:25:37;99045.06;;;-1.68;100.00
56671;BME280;42545;50.054;8.306;2022-12-10T03:28:06;99041.44;;;-1.71;100.00
56671;BME280;42545;50.054;8.306;2022-12-10T03:30:38;99042.25;;;-1.72;100.00
56671;BME280;42545;50.054;8.306;2022-12-10T03:33:05;99050.81;;;-1.74;100.00
56671;BME280;42545;50.054;8.306;2022-12-10T03:35:33;99046.38;;;-1.76;100.00
56671;BME280;42545;50.054;8.306;2022-12-10T03:38:00;99036.78;;;-1.79;100.00
56671;BME280;42545;50.054;8.306;2022-12-10T03:40:27;99040.09;;;-1.81;100.00
56671;BME280;42545;50.054;8.306;2022-12-10T03:42:54;99045.19;;;-1.83;100.00
56671;BME280;42545;50.054;8.306;2022-12-10T03:45:21;99045.13;;;-1.84;100.00
56671;BME280;42545;50.054;8.306;2022-12-10T03:47:52;99051.09;;;-1.85;100.00
56671;BME280;42545;50.054;8.306;2022-12-10T03:50:18;99047.56;;;-1.87;100.00
56671;BME280;42545;50.054;8.306;2022-12-10T03:52:49;99052.72;;;-1.87;100.00
56671;BME280;42545;50.054;8.306;2022-12-10T03:55:16;99057.81;;;-1.89;100.00
56671;BME280;42545;50.054;8.306;2022-12-10T03:57:43;99063.00;;;-1.89;100.00
56671;BME280;42545;50.054;8.306;2022-12-10T04:00:11;99050.72;;;-1.93;100.00
56671;BME280;42545;50.054;8.306;2022-12-10T04:02:38;99056.88;;;-1.91;100.00
56671;BME280;42545;50.054;8.306;2022-12-10T04:05:08;99065.41;;;-1.92;100.00
56671;BME280;42545;50.054;8.306;2022-12-10T04:07:35;99058.50;;;-1.93;100.00
56671;BME280;42545;50.054;8.306;2022-12-10T04:10:02;99064.44;;;-1.94;100.00
56671;BME280;42545;50.054;8.306;2022-12-10T04:12:29;99060.13;;;-1.95;100.00
56671;BME280;42545;50.054;8.306;2022-12-10T04:14:56;99061.88;;;-1.94;100.00
56671;BME280;42545;50.054;8.306;2022-12-10T04:17:41;99057.53;;;-1.95;100.00
56671;BME280;42545;50.054;8.306;2022-12-10T04:20:10;99058.31;;;-1.96;100.00
56671;BME280;42545;50.054;8.306;2022-12-10T04:22:57;99062.63;;;-1.97;100.00
56671;BME280;42545;50.054;8.306;2022-12-10T04:25:41;99064.25;;;-1.99;100.00
56671;BME280;42545;50.054;8.306;2022-12-10T04:28:25;99059.00;;;-2.00;100.00
56671;BME280;42545;50.054;8.306;2022-12-10T04:30:52;99069.16;;;-2.03;100.00
56671;BME280;42545;50.054;8.306;2022-12-10T04:33:20;99068.28;;;-2.04;100.00
56671;BME280;42545;50.054;8.306;2022-12-10T04:35:49;99067.41;;;-2.04;100.00
56671;BME280;42545;50.054;8.306;2022-12-10T04:38:17;99064.75;;;-2.06;100.00
56671;BME280;42545;50.054;8.306;2022-12-10T04:40:44;99069.84;;;-2.07;100.00
56671;BME280;42545;50.054;8.306;2022-12-10T04:43:12;99067.25;;;-2.07;100.00
56671;BME280;42545;50.054;8.306;2022-12-10T04:45:39;99074.16;;;-2.06;100.00
56671;BME280;42545;50.054;8.306;2022-12-10T04:48:06;99068.13;;;-2.07;100.00
56671;BME280;42545;50.054;8.306;2022-12-10T04:50:33;99064.66;;;-2.07;100.00
56671;BME280;42545;50.054;8.306;2022-12-10T04:53:01;99068.13;;;-2.07;100.00
56671;BME280;42545;50.054;8.306;2022-12-10T04:55:29;99062.88;;;-2.08;100.00
56671;BME280;42545;50.054;8.306;2022-12-10T04:57:57;99066.38;;;-2.08;100.00
56671;BME280;42545;50.054;8.306;2022-12-10T05:00:24;99064.56;;;-2.09;100.00
56671;BME280;42545;50.054;8.306;2022-12-10T05:02:53;99066.28;;;-2.09;100.00
56671;BME280;42545;50.054;8.306;2022-12-10T05:05:21;99066.28;;;-2.09;100.00
56671;BME280;42545;50.054;8.306;2022-12-10T05:07:48;99067.97;;;-2.10;100.00
56671;BME280;42545;50.054;8.306;2022-12-10T05:10:17;99071.28;;;-2.13;100.00
56671;BME280;42545;50.054;8.306;2022-12-10T05:12:44;99067.75;;;-2.15;100.00
56671;BME280;42545;50.054;8.306;2022-12-10T05:15:11;99077.34;;;-2.12;100.00
56671;BME280;42545;50.054;8.306;2022-12-10T05:17:38;99072.84;;;-2.16;100.00
56671;BME280;42545;50.054;8.306;2022-12-10T05:20:07;99085.75;;;-2.16;100.00
56671;BME280;42545;50.054;8.306;2022-12-10T05:22:34;99082.22;;;-2.18;100.00
56671;BME280;42545;50.054;8.306;2022-12-10T05:25:20;99086.41;;;-2.20;100.00
56671;BME280;42545;50.054;8.306;2022-12-10T05:27:47;99088.91;;;-2.22;100.00
56671;BME280;42545;50.054;8.306;2022-12-10T05:30:14;99087.00;;;-2.26;100.00
56671;BME280;42545;50.054;8.306;2022-12-10T05:32:47;99091.09;;;-2.29;100.00
56671;BME280;42545;50.054;8.306;2022-12-10T05:35:21;99097.00;;;-2.32;100.00
56671;BME280;42545;50.054;8.306;2022-12-10T05:37:55;99096.75;;;-2.37;100.00
56671;BME280;42545;50.054;8.306;2022-12-10T05:40:23;99095.88;;;-2.37;100.00
56671;BME280;42545;50.054;8.306;2022-12-10T05:42:50;99101.69;;;-2.41;100.00
56671;BME280;42545;50.054;8.306;2022-12-10T05:45:17;99105.97;;;-2.42;100.00
56671;BME280;42545;50.054;8.306;2022-12-10T05:47:44;99106.72;;;-2.44;100.00
56671;BME280;42545;50.054;8.306;2022-12-10T05:50:11;99111.88;;;-2.44;100.00
56671;BME280;42545;50.054;8.306;2022-12-10T05:52:38;99109.22;;;-2.46;100.00
56671;BME280;42545;50.054;8.306;2022-12-10T05:55:07;99114.38;;;-2.46;100.00
56671;BME280;42545;50.054;8.306;2022-12-10T05:57:37;99113.50;;;-2.46;100.00
56671;BME280;42545;50.054;8.306;2022-12-10T06:00:05;99111.69;;;-2.47;100.00
56671;BME280;42545;50.054;8.306;2022-12-10T06:02:32;99115.91;;;-2.49;100.00
56671;BME280;42545;50.054;8.306;2022-12-10T06:05:01;99115.91;;;-2.49;100.00
56671;BME280;42545;50.054;8.306;2022-12-10T06:07:30;99117.53;;;-2.52;100.00
56671;BME280;42545;50.054;8.306;2022-12-10T06:09:59;99112.19;;;-2.55;100.00
56671;BME280;42545;50.054;8.306;2022-12-10T06:12:26;99119.94;;;-2.55;100.00
56671;BME280;42545;50.054;8.306;2022-12-10T06:14:54;99122.59;;;-2.53;100.00
56671;BME280;42545;50.054;8.306;2022-12-10T06:17:21;99120.03;;;-2.53;100.00
56671;BME280;42545;50.054;8.306;2022-12-10T06:19:49;99117.44;;;-2.53;100.00
56671;BME280;42545;50.054;8.306;2022-12-10T06:22:16;99120.03;;;-2.53;100.00
56671;BME280;42545;50.054;8.306;2022-12-10T06:24:44;99122.69;;;-2.52;100.00
56671;BME280;42545;50.054;8.306;2022-12-10T06:27:11;99121.06;;;-2.49;100.00
56671;BME280;42545;50.054;8.306;2022-12-10T06:29:38;99118.66;;;-2.46;100.00
56671;BME280;42545;50.054;8.306;2022-12-10T06:32:07;99110.75;;;-2.49;100.00
56671;BME280;42545;50.054;8.306;2022-12-10T06:34:35;99125.66;;;-2.44;100.00
56671;BME280;42545;50.054;8.306;2022-12-10T06:37:01;99130.91;;;-2.42;100.00
56671;BME280;42545;50.054;8.306;2022-12-10T06:39:31;99133.41;;;-2.44;100.00
56671;BME280;42545;50.054;8.306;2022-12-10T06:41:58;99136.88;;;-2.43;100.00
56671;BME280;42545;50.054;8.306;2022-12-10T06:44:26;99136.88;;;-2.43;100.00
56671;BME280;42545;50.054;8.306;2022-12-10T06:46:56;99138.66;;;-2.42;100.00
56671;BME280;42545;50.054;8.306;2022-12-10T06:49:31;99141.25;;;-2.42;100.00
56671;BME280;42545;50.054;8.306;2022-12-10T06:52:01;99143.00;;;-2.41;100.00
56671;BME280;42545;50.054;8.306;2022-12-10T06:54:30;99156.84;;;-2.41;100.00
56671;BME280;42545;50.054;8.306;2022-12-10T06:56:58;99151.69;;;-2.41;100.00
56671;BME280;42545;50.054;8.306;2022-12-10T06:59:25;99153.34;;;-2.41;100.00
56671;BME280;42545;50.054;8.306;2022-12-10T07:01:54;99154.25;;;-2.41;100.00
56671;BME280;42545;50.054;8.306;2022-12-10T07:04:21;99161.19;;;-2.40;100.00
56671;BME280;42545;50.054;8.306;2022-12-10T07:06:55;99162.06;;;-2.39;100.00
56671;BME280;42545;50.054;8.306;2022-12-10T07:09:25;99163.78;;;-2.40;100.00
56671;BME280;42545;50.054;8.306;2022-12-10T07:11:52;99162.00;;;-2.41;100.00
56671;BME280;42545;50.054;8.306;2022-12-10T07:14:19;99166.19;;;-2.43;100.00
56671;BME280;42545;50.054;8.306;2022-12-10T07:16:49;99166.19;;;-2.43;100.00
56671;BME280;42545;50.054;8.306;2022-12-10T07:19:16;99164.50;;;-2.42;100.00
56671;BME280;42545;50.054;8.306;2022-12-10T07:21:44;99171.34;;;-2.43;100.00
56671;BME280;42545;50.054;8.306;2022-12-10T07:24:17;99168.84;;;-2.41;100.00
56671;BME280;42545;50.054;8.306;2022-12-10T07:26:45;99180.22;;;-2.38;100.00
56671;BME280;42545;50.054;8.306;2022-12-10T07:29:16;99177.75;;;-2.36;100.00
56671;BME280;42545;50.054;8.306;2022-12-10T07:31:45;99173.44;;;-2.36;100.00
56671;BME280;42545;50.054;8.306;2022-12-10T07:34:15;99182.25;;;-2.32;100.00
56671;BME280;42545;50.054;8.306;2022-12-10T07:36:42;99189.28;;;-2.29;100.00
56671;BME280;42545;50.054;8.306;2022-12-10T07:39:09;99190.25;;;-2.27;100.00
56671;BME280;42545;50.054;8.306;2022-12-10T07:41:47;99186.06;;;-2.25;100.00
56671;BME280;42545;50.054;8.306;2022-12-10T07:44:15;99189.59;;;-2.23;100.00
56671;BME280;42545;50.054;8.306;2022-12-10T07:46:44;99188.97;;;-2.19;100.00
56671;BME280;42545;50.054;8.306;2022-12-10T07:49:11;99192.53;;;-2.17;100.00
56671;BME280;42545;50.054;8.306;2022-12-10T07:51:39;99192.75;;;-2.13;100.00
56671;BME280;42545;50.054;8.306;2022-12-10T07:54:05;99193.03;;;-2.08;100.00
56671;BME280;42545;50.054;8.306;2022-12-10T07:56:34;99193.16;;;-2.05;100.00
56671;BME280;42545;50.054;8.306;2022-12-10T07:59:05;99202.03;;;-2.00;100.00
56671;BME280;42545;50.054;8.306;2022-12-10T08:01:34;99199.72;;;-1.95;100.00
56671;BME280;42545;50.054;8.306;2022-12-10T08:04:01;99196.47;;;-1.91;100.00
56671;BME280;42545;50.054;8.306;2022-12-10T08:06:28;99197.59;;;-1.86;100.00
56671;BME280;42545;50.054;8.306;2022-12-10T08:08:57;99193.41;;;-1.84;100.00
56671;BME280;42545;50.054;8.306;2022-12-10T08:11:26;99204.69;;;-1.82;100.00
56671;BME280;42545;50.054;8.306;2022-12-10T08:13:54;99202.28;;;-1.79;100.00
56671;BME280;42545;50.054;8.306;2022-12-10T08:16:26;99213.72;;;-1.74;100.00
56671;BME280;42545;50.054;8.306;2022-12-10T08:18:53;99218.91;;;-1.74;100.00
56671;BME280;42545;50.054;8.306;2022-12-10T08:21:22;99221.00;;;-1.66;100.00
56671;BME280;42545;50.054;8.306;2022-12-10T08:23:50;99217.69;;;-1.64;100.00
56671;BME280;42545;50.054;8.306;2022-12-10T08:26:19;99208.31;;;-1.62;100.00
56671;BME280;42545;50.054;8.306;2022-12-10T08:28:48;99212.91;;;-1.56;100.00
56671;BME280;42545;50.054;8.306;2022-12-10T08:31:16;99213.94;;;-1.52;100.00
56671;BME280;42545;50.054;8.306;2022-12-10T08:33:45;99215.78;;;-1.50;100.00
56671;BME280;42545;50.054;8.306;2022-12-10T08:36:14;99212.56;;;-1.46;100.00
56671;BME280;42545;50.054;8.306;2022-12-10T08:38:41;99217.09;;;-1.42;100.00
56671;BME280;42545;50.054;8.306;2022-12-10T08:41:10;99217.25;;;-1.39;100.00
56671;BME280;42545;50.054;8.306;2022-12-10T08:43:38;99217.47;;;-1.34;100.00
56671;BME280;42545;50.054;8.306;2022-12-10T08:46:06;99222.03;;;-1.28;100.00
56671;BME280;42545;50.054;8.306;2022-12-10T08:48:33;99226.50;;;-1.26;100.00
56671;BME280;42545;50.054;8.306;2022-12-10T08:51:02;99232.78;;;-1.21;100.00
56671;BME280;42545;50.054;8.306;2022-12-10T08:53:29;99232.06;;;-1.18;100.00
56671;BME280;42545;50.054;8.306;2022-12-10T08:55:56;99240.94;;;-1.13;100.00
56671;BME280;42545;50.054;8.306;2022-12-10T08:58:24;99242.00;;;-1.09;100.00
56671;BME280;42545;50.054;8.306;2022-12-10T09:00:51;99245.75;;;-1.03;100.00
56671;BME280;42545;50.054;8.306;2022-12-10T09:03:18;99252.88;;;-0.99;100.00
56671;BME280;42545;50.054;8.306;2022-12-10T09:05:45;99246.94;;;-0.96;100.00
56671;BME280;42545;50.054;8.306;2022-12-10T09:08:14;99251.38;;;-0.93;100.00
56671;BME280;42545;50.054;8.306;2022-12-10T09:10:41;99255.84;;;-0.91;100.00
56671;BME280;42545;50.054;8.306;2022-12-10T09:13:09;99270.63;;;-0.88;100.00
56671;BME280;42545;50.054;8.306;2022-12-10T09:15:36;99251.44;;;-0.92;100.00
56671;BME280;42545;50.054;8.306;2022-12-10T09:18:03;99265.28;;;-0.91;100.00
56671;BME280;42545;50.054;8.306;2022-12-10T09:20:31;99262.47;;;-0.96;100.00
56671;BME280;42545;50.054;8.306;2022-12-10T09:22:58;99258.06;;;-0.99;100.00
56671;BME280;42545;50.054;8.306;2022-12-10T09:25:29;99264.13;;;-0.98;99.86
56671;BME280;42545;50.054;8.306;2022-12-10T09:27:58;99262.31;;;-0.99;99.82
56671;BME280;42545;50.054;8.306;2022-12-10T09:30:26;99258.06;;;-0.99;99.54
56671;BME280;42545;50.054;8.306;2022-12-10T09:32:55;99265.06;;;-0.96;99.50
56671;BME280;42545;50.054;8.306;2022-12-10T09:35:25;99261.72;;;-0.93;99.65
56671;BME280;42545;50.054;8.306;2022-12-10T09:37:54;99262.56;;;-0.94;99.46
56671;BME280;42545;50.054;8.306;2022-12-10T09:40:26;99255.69;;;-0.94;99.42
56671;BME280;42545;50.054;8.306;2022-12-10T09:43:13;99268.28;;;-0.84;99.65
56671;BME280;42545;50.054;8.306;2022-12-10T09:45:58;99255.69;;;-0.76;99.54
56671;BME280;42545;50.054;8.306;2022-12-10T09:48:34;99253.28;;;-0.71;98.93
56671;BME280;42545;50.054;8.306;2022-12-10T09:51:12;99251.47;;;-0.56;99.29
56671;BME280;42545;50.054;8.306;2022-12-10T09:53:45;99246.19;;;-0.40;98.50
56671;BME280;42545;50.054;8.306;2022-12-10T09:56:21;99254.56;;;-0.26;97.22
56671;BME280;42545;50.054;8.306;2022-12-10T09:58:51;99249.78;;;-0.18;96.37
56671;BME280;42545;50.054;8.306;2022-12-10T10:01:20;99241.91;;;-0.20;95.30
56671;BME280;42545;50.054;8.306;2022-12-10T10:03:50;99249.84;;;-0.16;94.78
56671;BME280;42545;50.054;8.306;2022-12-10T10:06:27;99246.28;;;-0.18;94.51
56671;BME280;42545;50.054;8.306;2022-12-10T10:08:57;99250.50;;;-0.21;94.57
56671;BME280;42545;50.054;8.306;2022-12-10T10:11:29;99252.06;;;-0.24;94.82
56671;BME280;42545;50.054;8.306;2022-12-10T10:14:01;99257.84;;;-0.30;94.14
56671;BME280;42545;50.054;8.306;2022-12-10T10:16:33;99258.63;;;-0.32;94.04
56671;BME280;42545;50.054;8.306;2022-12-10T10:19:03;99259.50;;;-0.32;94.07
56671;BME280;42545;50.054;8.306;2022-12-10T10:21:35;99256.91;;;-0.32;94.32
56671;BME280;42545;50.054;8.306;2022-12-10T10:24:05;99264.84;;;-0.09;93.25
56671;BME280;42545;50.054;8.306;2022-12-10T10:26:36;99256.91;;;0.06;92.11
56671;BME280;42545;50.054;8.306;2022-12-10T10:29:06;99265.34;;;0.41;90.54
56671;BME280;42545;50.054;8.306;2022-12-10T10:31:39;99261.50;;;0.71;89.45
56671;BME280;42545;50.054;8.306;2022-12-10T10:37:22;99254.78;;;0.98;86.99
56671;BME280;42545;50.054;8.306;2022-12-10T10:39:51;99251.34;;;1.41;87.69
56671;BME280;42545;50.054;8.306;2022-12-10T10:42:27;99257.97;;;2.00;84.72
56671;BME280;42545;50.054;8.306;2022-12-10T10:44:56;99248.00;;;2.61;82.48
56671;BME280;42545;50.054;8.306;2022-12-10T10:47:26;99246.31;;;2.87;77.44
56671;BME280;42545;50.054;8.306;2022-12-10T10:49:54;99247.56;;;2.73;76.69
56671;BME280;42545;50.054;8.306;2022-12-10T10:52:21;99247.63;;;2.50;78.71
56671;BME280;42545;50.054;8.306;2022-12-10T10:54:49;99250.84;;;2.67;80.23
56671;BME280;42545;50.054;8.306;2022-12-10T10:57:21;99246.75;;;3.01;79.36
56671;BME280;42545;50.054;8.306;2022-12-10T10:59:51;99240.88;;;3.34;75.56
56671;BME280;42545;50.054;8.306;2022-12-10T11:02:25;99236.53;;;3.33;74.15
56671;BME280;42545;50.054;8.306;2022-12-10T11:04:57;99238.66;;;3.19;74.74
56671;BME280;42545;50.054;8.306;2022-12-10T11:07:32;99234.88;;;3.09;75.75
56671;BME280;42545;50.054;8.306;2022-12-10T11:10:01;99232.53;;;3.17;75.66
56671;BME280;42545;50.054;8.306;2022-12-10T11:12:35;99233.63;;;3.23;74.61
56671;BME280;42545;50.054;8.306;2022-12-10T11:15:28;99234.31;;;3.46;74.68
56671;BME280;42545;50.054;8.306;2022-12-10T11:17:56;99235.56;;;3.87;74.24
56671;BME280;42545;50.054;8.306;2022-12-10T11:20:28;99228.19;;;4.02;72.77
56671;BME280;42545;50.054;8.306;2022-12-10T11:22:57;99226.88;;;4.16;73.40
56671;BME280;42545;50.054;8.306;2022-12-10T11:25:36;99209.69;;;4.24;68.43
56671;BME280;42545;50.054;8.306;2022-12-10T11:28:07;99216.38;;;4.15;68.54
56671;BME280;42545;50.054;8.306;2022-12-10T11:30:42;99222.88;;;3.99;66.78
56671;BME280;42545;50.054;8.306;2022-12-10T11:33:24;99226.72;;;4.12;68.24
56671;BME280;42545;50.054;8.306;2022-12-10T11:36:00;99236.28;;;4.11;68.19
56671;BME280;42545;50.054;8.306;2022-12-10T11:38:40;99233.78;;;4.16;67.72
56671;BME280;42545;50.054;8.306;2022-12-10T11:41:19;99231.28;;;4.19;69.13
56671;BME280;42545;50.054;8.306;2022-12-10T11:44:03;99228.31;;;4.37;69.95
56671;BME280;42545;50.054;8.306;2022-12-10T11:46:49;99226.53;;;4.36;67.86
56671;BME280;42545;50.054;8.306;2022-12-10T11:49:32;99223.00;;;4.34;68.12
56671;BME280;42545;50.054;8.306;2022-12-10T11:52:08;99223.00;;;4.34;67.05
56671;BME280;42545;50.054;8.306;2022-12-10T11:54:47;99226.19;;;4.55;67.25
56671;BME280;42545;50.054;8.306;2022-12-10T11:57:27;99223.72;;;4.93;68.21
56671;BME280;42545;50.054;8.306;2022-12-10T12:00:00;99219.50;;;5.36;65.43
56671;BME280;42545;50.054;8.306;2022-12-10T12:02:46;99223.75;;;5.69;64.85
56671;BME280;42545;50.054;8.306;2022-12-10T12:05:27;99227.53;;;5.82;63.97
56671;BME280;42545;50.054;8.306;2022-12-10T12:18:14;99253.44;;;4.33;67.27
56671;BME280;42545;50.054;8.306;2022-12-10T12:20:49;99253.16;;;3.65;68.74
56671;BME280;42545;50.054;8.306;2022-12-10T12:23:23;99261.09;;;3.14;70.61
56671;BME280;42545;50.054;8.306;2022-12-10T12:25:55;99271.03;;;2.48;73.94
56671;BME280;42545;50.054;8.306;2022-12-10T12:28:26;99273.50;;;2.21;75.18
56671;BME280;42545;50.054;8.306;2022-12-10T12:31:01;99267.22;;;1.92;76.46
56671;BME280;42545;50.054;8.306;2022-12-10T12:33:43;99269.69;;;1.66;78.21
56671;BME280;42545;50.054;8.306;2022-12-10T12:36:18;99257.66;;;1.47;79.13
56671;BME280;42545;50.054;8.306;2022-12-10T12:38:53;99261.41;;;1.33;79.98
56671;BME280;42545;50.054;8.306;2022-12-10T12:41:30;99259.97;;;1.19;81.37
56671;BME280;42545;50.054;8.306;2022-12-10T12:44:04;99261.38;;;1.31;81.68
56671;BME280;42545;50.054;8.306;2022-12-10T12:46:39;99265.00;;;1.80;80.99
56671;BME280;42545;50.054;8.306;2022-12-10T12:49:16;99264.19;;;2.28;80.52
56671;BME280;42545;50.054;8.306;2022-12-10T12:51:52;99254.81;;;2.57;77.84
56671;BME280;42545;50.054;8.306;2022-12-10T12:54:21;99262.72;;;2.84;77.94
56671;BME280;42545;50.054;8.306;2022-12-10T12:56:57;99262.56;;;3.05;75.22
56671;BME280;42545;50.054;8.306;2022-12-10T12:59:35;99251.25;;;3.05;74.34
56671;BME280;42545;50.054;8.306;2022-12-10T13:02:18;99256.94;;;2.93;75.46
56671;BME280;42545;50.054;8.306;2022-12-10T13:04:48;99254.75;;;3.05;75.56
56671;BME280;42545;50.054;8.306;2022-12-10T13:07:35;99265.00;;;3.01;73.28
56671;BME280;42545;50.054;8.306;2022-12-10T13:10:24;99271.13;;;2.76;74.84
56671;BME280;42545;50.054;8.306;2022-12-10T13:13:06;99273.59;;;2.73;75.40
56671;BME280;42545;50.054;8.306;2022-12-10T13:15:36;99273.88;;;2.80;76.83
56671;BME280;42545;50.054;8.306;2022-12-10T13:18:20;99273.31;;;2.89;77.14
56671;BME280;42545;50.054;8.306;2022-12-10T13:20:49;99279.34;;;2.88;75.40
56671;BME280;42545;50.054;8.306;2022-12-10T13:23:32;99279.19;;;2.83;74.95
56671;BME280;42545;50.054;8.306;2022-12-10T13:26:02;99275.81;;;2.62;75.11
56671;BME280;42545;50.054;8.306;2022-12-10T13:28:38;99294.84;;;2.59;75.20